createdAt,value
2023-02-16T00:00:29.748Z,93.79
2023-02-16T00:02:56.823Z,93.82
2023-02-16T00:05:34.846Z,94.01
2023-02-16T00:08:02.250Z,94.14
2023-02-16T00:10:35.630Z,93.99
2023-02-16T00:13:47.594Z,94.08
2023-02-16T00:16:24.379Z,93.73
2023-02-16T00:18:52.458Z,94.10
2023-02-16T00:21:19.797Z,94.14
2023-02-16T00:23:48.239Z,94.44
2023-02-16T00:26:25.406Z,94.50
2023-02-16T00:29:00.489Z,94.25
2023-02-16T00:31:33.147Z,94.17
2023-02-16T00:34:30.571Z,94.42
2023-02-16T00:36:59.776Z,94.29
2023-02-16T00:39:28.074Z,94.17
2023-02-16T00:42:00.298Z,94.09
2023-02-16T00:44:42.085Z,94.47
2023-02-16T00:47:30.650Z,94.29
2023-02-16T00:49:57.674Z,94.50
2023-02-16T00:52:38.189Z,94.36
2023-02-16T00:55:16.035Z,94.39
2023-02-16T00:57:52.367Z,94.45
2023-02-16T01:00:27.561Z,94.55
2023-02-16T01:03:00.454Z,94.39
2023-02-16T01:05:28.538Z,94.57
2023-02-16T01:08:13.921Z,94.31
2023-02-16T01:10:59.846Z,94.70
2023-02-16T01:13:29.776Z,94.62
2023-02-16T01:15:57.332Z,94.60
2023-02-16T01:18:24.266Z,94.75
2023-02-16T01:20:51.183Z,94.80
2023-02-16T01:23:18.066Z,94.43
2023-02-16T01:25:45.103Z,94.64
2023-02-16T01:28:25.717Z,94.63
2023-02-16T01:30:54.353Z,94.76
2023-02-16T01:33:22.247Z,94.91
2023-02-16T01:35:50.950Z,94.76
2023-02-16T01:38:28.320Z,94.88
2023-02-16T01:41:38.272Z,94.88
2023-02-16T01:44:15.488Z,94.88
2023-02-16T01:46:52.720Z,94.74
2023-02-16T01:49:21.233Z,94.94
2023-02-16T01:52:07.536Z,94.80
2023-02-16T01:55:12.618Z,94.78
2023-02-16T01:57:47.610Z,95.00
2023-02-16T02:00:40.517Z,94.59
2023-02-16T02:03:32.116Z,94.91
2023-02-16T02:05:58.989Z,94.98
2023-02-16T02:08:45.720Z,94.91
2023-02-16T02:11:27.150Z,95.33
2023-02-16T02:14:36.020Z,94.93
2023-02-16T02:17:15.050Z,94.92
2023-02-16T02:20:11.205Z,95.03
2023-02-16T02:23:29.957Z,94.96
2023-02-16T02:27:23.830Z,94.89
2023-02-16T02:44:23.960Z,94.58
2023-02-16T02:47:02.788Z,94.60
2023-02-16T03:01:38.573Z,94.71
2023-02-16T03:06:33.538Z,94.98
2023-02-16T03:08:23.994Z,94.75
2023-02-16T03:16:14.218Z,94.65
2023-02-16T03:20:02.369Z,94.70
2023-02-16T03:23:33.179Z,94.71
2023-02-16T03:30:11.397Z,94.81
2023-02-16T03:33:17.449Z,94.58
2023-02-16T03:43:48.306Z,94.94
2023-02-16T03:50:57.632Z,95.12
2023-02-16T03:54:17.925Z,94.91
2023-02-16T03:57:28.341Z,94.95
2023-02-16T04:01:12.479Z,94.87
2023-02-16T04:04:36.841Z,95.16
2023-02-16T04:07:46.577Z,94.93
2023-02-16T04:10:41.055Z,95.16
2023-02-16T04:17:45.869Z,95.08
2023-02-16T04:32:38.856Z,94.97
2023-02-16T04:39:15.299Z,95.01
2023-02-16T04:46:31.100Z,94.86
2023-02-16T04:56:09.406Z,94.73
2023-02-16T04:59:30.286Z,94.96
2023-02-16T05:06:45.052Z,94.73
2023-02-16T05:10:06.709Z,94.39
2023-02-16T05:13:52.400Z,94.58
2023-02-16T05:20:42.827Z,94.70
2023-02-16T05:20:53.803Z,94.45
2023-02-16T05:24:05.808Z,94.59
2023-02-16T05:30:01.494Z,94.72
2023-02-16T05:36:04.851Z,94.80
2023-02-16T05:39:11.659Z,95.06
2023-02-16T05:42:13.755Z,94.73
2023-02-16T05:45:51.077Z,94.91
2023-02-16T05:49:07.520Z,94.89
2023-02-16T05:52:41.730Z,94.82
2023-02-16T05:58:58.408Z,94.56
2023-02-16T06:02:12.948Z,94.75
2023-02-16T06:08:06.444Z,95.14
2023-02-16T06:14:16.025Z,94.84
2023-02-16T06:24:33.010Z,94.78
2023-02-16T06:28:14.591Z,94.85
2023-02-16T06:39:00.705Z,94.70
2023-02-16T06:41:44.692Z,94.73
2023-02-16T06:55:24.303Z,95.23
2023-02-16T06:58:49.731Z,95.09
2023-02-16T07:01:45.298Z,95.55
2023-02-16T07:08:12.714Z,95.45
2023-02-16T07:26:23.775Z,94.03
2023-02-16T07:28:53.612Z,93.19
2023-02-16T07:31:28.187Z,92.54
2023-02-16T07:34:09.941Z,90.86
2023-02-16T07:36:49.926Z,89.93
2023-02-16T07:39:37.465Z,88.72
2023-02-16T07:42:28.780Z,87.68
2023-02-16T07:45:21.117Z,86.47
2023-02-16T07:48:02.808Z,85.54
2023-02-16T07:51:28.128Z,84.87
2023-02-16T07:54:29.220Z,84.44
2023-02-16T07:57:13.418Z,83.92
2023-02-16T07:59:45.360Z,82.93
2023-02-16T08:03:10.882Z,81.71
2023-02-16T08:05:50.762Z,80.42
2023-02-16T08:08:29.866Z,78.62
2023-02-16T08:11:36.157Z,78.29
2023-02-16T08:14:38.026Z,77.30
2023-02-16T08:17:17.660Z,76.53
2023-02-16T08:23:01.212Z,73.36
2023-02-16T08:26:19.653Z,72.26
2023-02-16T08:29:05.134Z,71.55
2023-02-16T08:34:54.788Z,70.27
2023-02-16T08:41:16.574Z,67.44
2023-02-16T08:43:59.603Z,65.65
2023-02-16T08:46:37.652Z,63.69
2023-02-16T08:50:28.052Z,62.14
2023-02-16T08:53:02.285Z,60.66
2023-02-16T08:55:43.215Z,59.38
2023-02-16T08:58:47.547Z,57.82
2023-02-16T09:01:45.526Z,56.34
2023-02-16T09:04:38.603Z,55.21
2023-02-16T09:07:41.839Z,53.70
2023-02-16T09:10:27.648Z,52.88
2023-02-16T09:13:05.627Z,51.94
2023-02-16T09:15:52.401Z,50.74
2023-02-16T09:18:23.055Z,50.64
2023-02-16T09:21:03.140Z,49.14
2023-02-16T09:23:34.724Z,49.01
2023-02-16T09:26:18.657Z,47.75
2023-02-16T09:29:02.032Z,47.42
2023-02-16T09:31:45.047Z,46.82
2023-02-16T09:34:31.787Z,46.23
2023-02-16T09:40:01.412Z,46.08
2023-02-16T09:43:11.365Z,44.95
2023-02-16T09:45:55.305Z,44.60
2023-02-16T09:49:01.858Z,44.40
2023-02-16T09:51:41.889Z,44.13
2023-02-16T09:54:20.411Z,43.50
2023-02-16T09:57:10.757Z,42.93
2023-02-16T10:00:21.722Z,43.61
2023-02-16T10:03:15.434Z,43.81
2023-02-16T10:06:24.334Z,43.49
2023-02-16T10:09:02.466Z,43.62
2023-02-16T10:11:59.387Z,43.08
2023-02-16T10:14:49.868Z,43.60
2023-02-16T10:17:40.685Z,43.56
2023-02-16T10:20:36.548Z,43.61
2023-02-16T10:23:16.763Z,44.04
2023-02-16T10:25:57.934Z,44.15
2023-02-16T10:29:17.732Z,44.45
2023-02-16T10:32:26.046Z,44.88
2023-02-16T10:35:25.760Z,45.81
2023-02-16T10:38:12.467Z,46.15
2023-02-16T10:41:22.142Z,46.62
2023-02-16T10:44:52.955Z,47.01
2023-02-16T10:48:24.517Z,47.22
2023-02-16T10:51:13.237Z,47.03
2023-02-16T10:53:50.789Z,47.03
2023-02-16T10:57:03.073Z,47.32
2023-02-16T10:59:54.287Z,47.30
2023-02-16T11:02:37.213Z,47.41
2023-02-16T11:05:27.749Z,48.02
2023-02-16T11:08:01.749Z,48.27
2023-02-16T11:10:44.656Z,48.13
2023-02-16T11:14:10.911Z,48.64
2023-02-16T11:16:49.184Z,48.91
2023-02-16T11:19:33.646Z,48.45
2023-02-16T11:22:33.556Z,48.56
2023-02-16T11:25:20.583Z,48.69
2023-02-16T11:28:02.974Z,49.09
2023-02-16T11:30:40.810Z,49.54
2023-02-16T11:33:44.484Z,49.72
2023-02-16T11:36:36.411Z,49.82
2023-02-16T11:39:25.682Z,50.08
2023-02-16T11:42:11.670Z,50.29
2023-02-16T11:44:52.786Z,50.44
2023-02-16T11:47:40.971Z,50.72
2023-02-16T11:50:21.749Z,50.62
2023-02-16T11:52:54.798Z,51.09
2023-02-16T11:55:36.164Z,51.20
2023-02-16T11:58:27.766Z,51.16
2023-02-16T12:01:17.093Z,51.22
2023-02-16T12:04:08.691Z,51.02
2023-02-16T12:07:05.891Z,51.16
2023-02-16T12:10:09.310Z,51.25
2023-02-16T12:13:03.359Z,51.48
2023-02-16T12:15:35.412Z,51.54
2023-02-16T12:18:37.077Z,51.63
2023-02-16T12:21:45.824Z,51.58
2023-02-16T12:25:24.407Z,51.78
2023-02-16T12:29:10.640Z,51.81
2023-02-16T12:32:32.915Z,51.68
2023-02-16T12:36:13.790Z,51.83
2023-02-16T12:39:52.207Z,51.77
2023-02-16T12:42:27.241Z,52.00
2023-02-16T12:45:38.679Z,51.95
2023-02-16T12:49:09.799Z,52.09
2023-02-16T12:52:28.911Z,52.17
2023-02-16T12:55:24.759Z,52.24
2023-02-16T13:01:44.378Z,52.48
2023-02-16T13:08:10.261Z,52.51
2023-02-16T13:14:41.732Z,52.30
2023-02-16T13:17:59.742Z,52.27
2023-02-16T13:21:00.107Z,52.48
2023-02-16T13:24:15.238Z,52.21
2023-02-16T13:27:11.301Z,52.42
2023-02-16T13:34:25.943Z,52.46
2023-02-16T13:37:41.854Z,52.31
2023-02-16T13:44:04.194Z,52.39
2023-02-16T13:46:46.858Z,52.36
2023-02-16T13:49:52.020Z,52.28
2023-02-16T13:52:49.293Z,52.29
2023-02-16T13:55:43.933Z,52.58
2023-02-16T13:59:13.406Z,52.50
2023-02-16T14:02:00.711Z,52.63
2023-02-16T14:04:59.719Z,52.71
2023-02-16T14:07:59.231Z,52.75
2023-02-16T14:12:11.420Z,52.81
2023-02-16T14:15:14.804Z,52.83
2023-02-16T14:19:22.712Z,52.93
2023-02-16T14:22:09.753Z,52.79
2023-02-16T14:25:01.355Z,52.32
2023-02-16T14:28:25.426Z,52.39
2023-02-16T14:34:13.467Z,52.39
2023-02-16T14:37:22.972Z,52.53
2023-02-16T14:40:07.345Z,52.33
2023-02-16T14:42:36.199Z,52.36
2023-02-16T14:45:40.400Z,52.07
2023-02-16T14:48:21.416Z,51.97
2023-02-16T14:51:40.819Z,51.94
2023-02-16T14:54:16.950Z,52.09
2023-02-16T14:56:50.003Z,52.21
2023-02-16T14:59:38.137Z,52.25
2023-02-16T15:02:38.002Z,52.47
2023-02-16T15:05:24.224Z,52.47
2023-02-16T15:08:19.238Z,52.67
2023-02-16T15:10:46.528Z,52.88
2023-02-16T15:13:24.428Z,52.84
2023-02-16T15:15:58.396Z,52.98
2023-02-16T15:18:34.483Z,52.93
2023-02-16T15:21:01.376Z,52.98
2023-02-16T15:23:36.071Z,53.15
2023-02-16T15:26:14.959Z,53.23
2023-02-16T15:28:44.609Z,53.25
2023-02-16T15:31:23.948Z,53.23
2023-02-16T15:34:07.988Z,53.47
2023-02-16T15:36:46.372Z,53.53
2023-02-16T15:39:42.977Z,53.77
2023-02-16T15:42:12.290Z,53.92
2023-02-16T15:44:39.349Z,53.96
2023-02-16T15:47:26.602Z,54.16
2023-02-16T15:49:55.064Z,54.43
2023-02-16T15:52:34.792Z,54.63
2023-02-16T15:55:06.127Z,54.95
2023-02-16T15:57:38.030Z,54.71
2023-02-16T16:00:23.177Z,55.12
2023-02-16T16:02:54.390Z,55.02
2023-02-16T16:05:32.990Z,55.41
2023-02-16T16:08:02.225Z,55.42
2023-02-16T16:10:40.980Z,55.78
2023-02-16T16:13:29.722Z,55.96
2023-02-16T16:16:01.482Z,56.17
2023-02-16T16:18:47.725Z,56.23
2023-02-16T16:21:24.025Z,56.51
2023-02-16T16:24:04.291Z,56.63
2023-02-16T16:26:36.269Z,56.78
2023-02-16T16:29:04.550Z,57.31
2023-02-16T16:31:34.877Z,57.15
2023-02-16T16:34:04.655Z,57.54
2023-02-16T16:36:37.616Z,57.85
2023-02-16T16:39:19.451Z,57.85
2023-02-16T16:41:56.450Z,57.96
2023-02-16T16:45:21.397Z,58.09
2023-02-16T16:47:52.577Z,58.03
2023-02-16T16:50:39.776Z,58.70
2023-02-16T16:53:31.747Z,58.87
2023-02-16T16:56:00.097Z,58.53
2023-02-16T16:58:28.099Z,58.82
2023-02-16T17:00:54.978Z,59.34
2023-02-16T17:03:22.460Z,59.18
2023-02-16T17:05:49.698Z,59.64
2023-02-16T17:08:16.621Z,59.76
2023-02-16T17:10:43.597Z,59.89
2023-02-16T17:13:19.260Z,59.78
2023-02-16T17:15:55.256Z,60.01
2023-02-16T17:18:23.195Z,60.00
2023-02-16T17:20:51.181Z,59.90
2023-02-16T17:23:20.650Z,60.06
2023-02-16T17:25:48.756Z,60.23
2023-02-16T17:28:18.246Z,60.40
2023-02-16T17:30:45.525Z,60.47
2023-02-16T17:33:12.461Z,60.48
2023-02-16T17:35:42.627Z,60.85
2023-02-16T17:38:13.022Z,60.59
2023-02-16T17:40:41.317Z,60.94
2023-02-16T17:43:15.656Z,60.76
2023-02-16T17:45:43.542Z,60.86
2023-02-16T17:48:24.066Z,61.23
2023-02-16T17:50:51.905Z,61.18
2023-02-16T17:53:22.814Z,60.97
2023-02-16T17:55:53.552Z,61.51
2023-02-16T17:58:22.669Z,61.32
2023-02-16T18:00:49.787Z,61.83
2023-02-16T18:03:18.062Z,62.25
2023-02-16T18:05:45.256Z,61.70
2023-02-16T18:08:13.296Z,61.87
2023-02-16T18:10:47.080Z,61.73
2023-02-16T18:13:14.769Z,62.12
2023-02-16T18:15:47.813Z,61.97
2023-02-16T18:18:19.068Z,62.04
2023-02-16T18:20:46.155Z,62.28
2023-02-16T18:23:14.552Z,62.48
2023-02-16T18:25:43.459Z,62.30
2023-02-16T18:28:18.423Z,62.72
2023-02-16T18:30:50.485Z,62.66
2023-02-16T18:33:20.949Z,63.00
2023-02-16T18:35:53.125Z,62.82
2023-02-16T18:38:22.075Z,62.92
2023-02-16T18:40:49.684Z,63.14
2023-02-16T18:43:16.574Z,62.69
2023-02-16T18:45:43.792Z,63.00
2023-02-16T18:48:11.443Z,63.07
2023-02-16T18:50:38.756Z,62.75
2023-02-16T18:53:06.530Z,63.16
2023-02-16T18:55:33.875Z,63.34
2023-02-16T18:58:02.543Z,63.13
2023-02-16T19:00:29.899Z,63.29
2023-02-16T19:02:57.030Z,63.63
2023-02-16T19:05:24.942Z,63.37
2023-02-16T19:07:52.029Z,63.38
2023-02-16T19:10:19.413Z,63.80
2023-02-16T19:12:46.569Z,63.81
2023-02-16T19:15:13.652Z,63.70
2023-02-16T19:17:40.619Z,63.56
2023-02-16T19:20:11.880Z,63.59
2023-02-16T19:22:38.954Z,63.78
2023-02-16T19:25:07.725Z,63.83
2023-02-16T19:27:35.074Z,63.72
2023-02-16T19:30:02.330Z,64.09
2023-02-16T19:32:29.829Z,63.92
2023-02-16T19:34:56.799Z,63.78
2023-02-16T19:37:23.920Z,63.94
2023-02-16T19:39:50.917Z,63.92
2023-02-16T19:42:17.911Z,64.22
2023-02-16T19:44:44.838Z,63.92
2023-02-16T19:47:11.730Z,64.17
2023-02-16T19:49:38.890Z,64.23
2023-02-16T19:52:05.944Z,63.97
2023-02-16T19:54:34.955Z,63.91
2023-02-16T19:57:03.973Z,64.18
2023-02-16T19:59:32.833Z,63.93
2023-02-16T20:02:00.261Z,64.12
2023-02-16T20:04:27.770Z,64.13
2023-02-16T20:06:56.430Z,63.89
2023-02-16T20:09:24.755Z,64.32
2023-02-16T20:11:52.408Z,64.28
2023-02-16T20:14:19.323Z,63.96
2023-02-16T20:16:46.474Z,64.46
2023-02-16T20:19:14.531Z,64.45
2023-02-16T20:21:44.105Z,64.28
2023-02-16T20:24:12.321Z,64.38
2023-02-16T20:26:44.055Z,64.26
2023-02-16T20:29:16.094Z,64.63
2023-02-16T20:31:53.750Z,64.32
2023-02-16T20:34:21.831Z,64.19
2023-02-16T20:36:48.804Z,64.34
2023-02-16T20:39:16.154Z,64.16
2023-02-16T20:41:43.450Z,64.22
2023-02-16T20:44:11.444Z,65.14
2023-02-16T20:46:40.125Z,65.53
2023-02-16T20:49:07.769Z,65.60
2023-02-16T20:51:36.477Z,66.32
2023-02-16T20:54:04.997Z,66.50
2023-02-16T20:56:31.932Z,66.86
2023-02-16T20:58:59.302Z,66.91
2023-02-16T21:01:37.462Z,67.58
2023-02-16T21:04:06.288Z,67.92
2023-02-16T21:06:34.080Z,68.02
2023-02-16T21:09:01.014Z,68.44
2023-02-16T21:11:27.967Z,68.76
2023-02-16T21:13:55.017Z,68.82
2023-02-16T21:16:22.622Z,68.98
2023-02-16T21:18:49.583Z,69.05
2023-02-16T21:21:17.273Z,69.24
2023-02-16T21:23:48.004Z,69.97
2023-02-16T21:26:15.931Z,70.12
2023-02-16T21:28:42.848Z,70.42
2023-02-16T21:31:17.849Z,70.17
2023-02-16T21:33:45.312Z,70.40
2023-02-16T21:36:16.260Z,70.18
2023-02-16T21:38:43.911Z,70.71
2023-02-16T21:41:24.779Z,70.79
2023-02-16T21:44:02.567Z,71.03
2023-02-16T21:46:45.677Z,71.02
2023-02-16T21:49:17.126Z,70.67
2023-02-16T21:51:45.787Z,71.13
2023-02-16T21:54:17.195Z,71.31
2023-02-16T21:56:48.421Z,70.86
2023-02-16T21:59:17.981Z,71.50
2023-02-16T22:01:49.087Z,71.53
2023-02-16T22:04:19.433Z,71.10
2023-02-16T22:06:49.222Z,71.54
2023-02-16T22:09:22.418Z,71.66
2023-02-16T22:11:50.784Z,71.56
2023-02-16T22:14:17.922Z,71.76
2023-02-16T22:16:46.883Z,71.90
2023-02-16T22:19:17.317Z,71.95
2023-02-16T22:21:46.864Z,72.15
2023-02-16T22:24:17.086Z,72.44
2023-02-16T22:26:45.274Z,72.34
2023-02-16T22:29:12.910Z,72.56
2023-02-16T22:31:46.748Z,72.19
2023-02-16T22:34:18.450Z,72.37
2023-02-16T22:36:45.915Z,72.71
2023-02-16T22:39:14.664Z,72.81
2023-02-16T22:41:41.770Z,72.99
2023-02-16T22:44:10.481Z,72.91
2023-02-16T22:46:37.501Z,73.28
2023-02-16T22:49:04.505Z,73.57
2023-02-16T22:51:31.630Z,73.57
2023-02-16T22:54:00.016Z,73.21
2023-02-16T22:56:27.327Z,73.40
2023-02-16T22:58:57.496Z,73.97
2023-02-16T23:01:27.065Z,74.15
2023-02-16T23:03:57.432Z,73.72
2023-02-16T23:06:36.941Z,74.05
2023-02-16T23:09:16.862Z,74.14
2023-02-16T23:11:44.085Z,74.11
2023-02-16T23:14:16.398Z,74.38
2023-02-16T23:16:46.540Z,74.06
2023-02-16T23:19:20.422Z,74.50
2023-02-16T23:21:48.480Z,74.17
2023-02-16T23:24:19.457Z,74.29
2023-02-16T23:26:46.819Z,74.89
2023-02-16T23:29:13.924Z,74.49
2023-02-16T23:31:43.561Z,75.04
2023-02-16T23:34:11.660Z,74.77
2023-02-16T23:36:39.721Z,75.10
2023-02-16T23:39:14.089Z,75.27
2023-02-16T23:41:41.875Z,74.76
2023-02-16T23:44:13.628Z,74.73
2023-02-16T23:46:40.769Z,74.77
2023-02-16T23:49:07.694Z,75.35
2023-02-16T23:51:34.696Z,74.87
2023-02-16T23:54:01.612Z,75.33
2023-02-16T23:56:29.495Z,75.50
2023-02-16T23:58:59.608Z,75.29
